Time;durP1;ratioP1;P1;durP2;ratioP2;P2;SDS_P1;SDS_P2;PMS_P1;PMS_P2;Temp;Humidity;BMP_temperature;BMP_pressure;BME280_temperature;BME280_humidity;BME280_pressure;Samples;Min_cycle;Max_cycle;Signal;HPM_P1;HPM_P2
2024/01/08 00:00:28;;;;;;;;;;;18.40;62.50;;;;;;7314603;19;9512;-55
2024/01/08 00:02:59;;;;;;;;;;;18.30;62.50;;;;;;7314179;19;9554;-55
2024/01/08 00:05:29;;;;;;;;;;;18.30;62.60;;;;;;7316704;19;10680;-55
2024/01/08 00:07:58;;;;;;;;;;;18.20;62.60;;;;;;7313041;19;9465;-55
2024/01/08 00:10:26;;;;;;;;;;;18.20;62.70;;;;;;7320398;19;9222;-55
2024/01/08 00:12:56;;;;;;;;;;;18.20;62.90;;;;;;7323744;19;9179;-55
2024/01/08 00:15:25;;;;;;;;;;;18.20;62.80;;;;;;7322841;19;9237;-55
2024/01/08 00:17:54;;;;;;;;;;;18.20;62.80;;;;;;7320299;19;9260;-55
2024/01/08 00:20:26;;;;;;;;;;;18.20;63.00;;;;;;7320768;19;9503;-55
2024/01/08 00:22:55;;;;;;;;;;;18.20;62.90;;;;;;7322288;19;9249;-55
2024/01/08 00:25:24;;;;;;;;;;;18.30;63.40;;;;;;7322115;19;9718;-55
2024/01/08 00:27:53;;;;;;;;;;;18.30;62.90;;;;;;7318623;19;9748;-56
2024/01/08 00:30:22;;;;;;;;;;;18.30;62.90;;;;;;7321412;19;10088;-55
2024/01/08 00:32:51;;;;;;;;;;;18.30;62.90;;;;;;7322602;19;9522;-55
2024/01/08 00:35:21;;;;;;;;;;;18.30;62.80;;;;;;7319473;19;10610;-55
2024/01/08 00:37:52;;;;;;;;;;;18.30;62.80;;;;;;7321328;19;9448;-55
2024/01/08 00:40:21;;;;;;;;;;;18.40;62.90;;;;;;7321634;19;9477;-55
2024/01/08 00:42:50;;;;;;;;;;;18.40;62.80;;;;;;7321909;19;10158;-55
2024/01/08 00:45:20;;;;;;;;;;;18.50;62.90;;;;;;7321676;19;9409;-55
2024/01/08 00:47:49;;;;;;;;;;;18.60;62.90;;;;;;7322964;19;9470;-55
2024/01/08 00:50:18;;;;;;;;;;;18.60;62.80;;;;;;7319955;19;9521;-55
2024/01/08 00:53:10;;;;;;;;;;;18.70;62.80;;;;;;7320087;19;9287;-55
2024/01/08 00:55:39;;;;;;;;;;;18.70;62.70;;;;;;7322142;19;9630;-55
2024/01/08 00:58:08;;;;;;;;;;;18.80;62.60;;;;;;7320349;19;9252;-55
2024/01/08 01:00:37;;;;;;;;;;;18.90;62.50;;;;;;7321120;19;9405;-55
2024/01/08 01:03:06;;;;;;;;;;;18.90;62.40;;;;;;7318004;19;9603;-55
2024/01/08 01:05:35;;;;;;;;;;;19.00;62.40;;;;;;7320828;19;9287;-55
2024/01/08 01:08:04;;;;;;;;;;;19.00;62.30;;;;;;7319827;19;9457;-55
2024/01/08 01:10:36;;;;;;;;;;;19.00;62.30;;;;;;7321265;19;10613;-55
2024/01/08 01:13:06;;;;;;;;;;;19.00;62.30;;;;;;7320826;19;9495;-55
2024/01/08 01:15:35;;;;;;;;;;;19.00;62.30;;;;;;7319754;19;9633;-55
2024/01/08 01:18:04;;;;;;;;;;;18.90;62.30;;;;;;7321081;19;9455;-55
2024/01/08 01:20:33;;;;;;;;;;;18.90;62.30;;;;;;7317485;19;9488;-55
2024/01/08 01:23:03;;;;;;;;;;;18.90;62.20;;;;;;7321917;19;9276;-55
2024/01/08 01:25:32;;;;;;;;;;;18.80;62.20;;;;;;7320909;19;9460;-55
2024/01/08 01:28:04;;;;;;;;;;;18.80;62.30;;;;;;7320033;19;9465;-55
2024/01/08 01:30:33;;;;;;;;;;;18.80;62.20;;;;;;7318592;19;10863;-55
2024/01/08 01:33:02;;;;;;;;;;;18.70;62.20;;;;;;7321520;19;9399;-55
2024/01/08 01:35:32;;;;;;;;;;;18.70;62.10;;;;;;7320057;19;9189;-55
2024/01/08 01:38:01;;;;;;;;;;;18.60;62.00;;;;;;7318194;19;9460;-55
2024/01/08 01:40:30;;;;;;;;;;;18.60;62.10;;;;;;7315360;19;9450;-55
2024/01/08 01:42:59;;;;;;;;;;;18.50;62.20;;;;;;7317402;19;9463;-55
2024/01/08 01:45:30;;;;;;;;;;;18.50;62.20;;;;;;7319447;19;9557;-55
2024/01/08 01:48:00;;;;;;;;;;;18.40;62.20;;;;;;7316756;19;9454;-55
2024/01/08 01:50:29;;;;;;;;;;;18.30;62.30;;;;;;7318070;19;9701;-55
2024/01/08 01:52:58;;;;;;;;;;;18.30;62.30;;;;;;7317973;19;9467;-55
2024/01/08 01:55:28;;;;;;;;;;;18.20;62.40;;;;;;7317365;19;9465;-55
2024/01/08 01:57:57;;;;;;;;;;;18.30;62.50;;;;;;7319314;19;9450;-55
2024/01/08 02:00:26;;;;;;;;;;;18.20;62.50;;;;;;7318470;19;9493;-59
2024/01/08 02:02:58;;;;;;;;;;;18.20;62.50;;;;;;7315327;19;9237;-56
2024/01/08 02:05:28;;;;;;;;;;;18.20;62.60;;;;;;7318206;19;9202;-55
2024/01/08 02:07:59;;;;;;;;;;;18.20;62.70;;;;;;7317789;19;9255;-55
2024/01/08 02:10:29;;;;;;;;;;;18.20;62.60;;;;;;7318063;19;10066;-55
2024/01/08 02:12:58;;;;;;;;;;;18.20;62.70;;;;;;7315726;19;9450;-55
2024/01/08 02:15:28;;;;;;;;;;;18.30;62.80;;;;;;7319422;19;9701;-55
2024/01/08 02:18:00;;;;;;;;;;;18.30;62.50;;;;;;7314809;19;9588;-55
2024/01/08 02:20:29;;;;;;;;;;;18.30;62.60;;;;;;7319601;19;10541;-56
2024/01/08 02:23:00;;;;;;;;;;;18.30;62.50;;;;;;7317147;19;10452;-55
2024/01/08 02:25:31;;;;;;;;;;;18.30;62.70;;;;;;7318238;19;9360;-55
2024/01/08 02:28:00;;;;;;;;;;;18.30;62.60;;;;;;7317818;19;9499;-55
2024/01/08 02:30:28;;;;;;;;;;;18.30;62.60;;;;;;7317895;19;9516;-55
2024/01/08 02:32:57;;;;;;;;;;;18.40;62.70;;;;;;7315206;19;9406;-55
2024/01/08 02:35:26;;;;;;;;;;;18.40;62.60;;;;;;7319185;19;9511;-55
2024/01/08 02:37:55;;;;;;;;;;;18.50;62.70;;;;;;7316922;19;9402;-58
2024/01/08 02:40:28;;;;;;;;;;;18.50;62.60;;;;;;7318168;19;10325;-56
2024/01/08 02:42:57;;;;;;;;;;;18.60;62.50;;;;;;7315895;19;9510;-55
2024/01/08 02:45:26;;;;;;;;;;;18.80;62.40;;;;;;7315949;19;9249;-56
2024/01/08 02:47:55;;;;;;;;;;;18.80;62.30;;;;;;7316270;19;9175;-56
2024/01/08 02:50:24;;;;;;;;;;;18.90;62.20;;;;;;7314917;19;9501;-56
2024/01/08 02:52:53;;;;;;;;;;;18.90;62.70;;;;;;7317172;19;9453;-55
2024/01/08 02:55:22;;;;;;;;;;;19.00;62.00;;;;;;7317283;19;9466;-55
2024/01/08 02:57:53;;;;;;;;;;;19.10;62.00;;;;;;7317406;19;10691;-55
2024/01/08 03:00:22;;;;;;;;;;;19.10;62.00;;;;;;7316966;19;9233;-55
2024/01/08 03:02:51;;;;;;;;;;;19.10;62.00;;;;;;7316308;19;10976;-55
2024/01/08 03:05:20;;;;;;;;;;;19.00;62.00;;;;;;7318440;19;9241;-55
2024/01/08 03:07:49;;;;;;;;;;;19.00;62.00;;;;;;7317585;19;9202;-55
2024/01/08 03:10:18;;;;;;;;;;;19.00;62.10;;;;;;7317274;19;9471;-56
2024/01/08 03:12:47;;;;;;;;;;;18.90;62.00;;;;;;7313448;19;9690;-55
2024/01/08 03:15:19;;;;;;;;;;;18.90;62.00;;;;;;7315307;19;9893;-55
2024/01/08 03:17:48;;;;;;;;;;;18.90;62.10;;;;;;7317594;19;9284;-55
2024/01/08 03:20:17;;;;;;;;;;;18.80;62.00;;;;;;7315447;19;11046;-55
2024/01/08 03:22:46;;;;;;;;;;;18.80;62.00;;;;;;7317084;19;9477;-55
2024/01/08 03:25:15;;;;;;;;;;;18.70;61.80;;;;;;7313906;19;9610;-55
2024/01/08 03:27:44;;;;;;;;;;;18.70;61.80;;;;;;7316591;19;9460;-55
2024/01/08 03:30:15;;;;;;;;;;;18.70;61.80;;;;;;7315321;19;9405;-55
2024/01/08 03:32:46;;;;;;;;;;;18.60;61.80;;;;;;7316594;19;9650;-58
2024/01/08 03:35:15;;;;;;;;;;;18.50;61.90;;;;;;7316286;19;10039;-55
2024/01/08 03:37:44;;;;;;;;;;;18.50;61.90;;;;;;7315966;19;9515;-56
2024/01/08 03:40:15;;;;;;;;;;;18.40;62.00;;;;;;7315722;19;9128;-55
2024/01/08 03:42:44;;;;;;;;;;;18.30;62.00;;;;;;7315436;19;9473;-56
2024/01/08 03:45:13;;;;;;;;;;;18.30;62.20;;;;;;7314708;19;9533;-55
2024/01/08 03:47:42;;;;;;;;;;;18.30;62.20;;;;;;7315291;19;9454;-56
2024/01/08 03:50:13;;;;;;;;;;;18.20;62.20;;;;;;7317300;19;9473;-56
2024/01/08 03:52:42;;;;;;;;;;;18.20;62.20;;;;;;7317115;19;10397;-55
2024/01/08 03:55:12;;;;;;;;;;;18.20;62.30;;;;;;7315052;19;9465;-55
2024/01/08 03:57:41;;;;;;;;;;;18.20;62.30;;;;;;7317377;19;9517;-56
2024/01/08 04:00:11;;;;;;;;;;;18.20;62.30;;;;;;7315531;19;9381;-55
2024/01/08 04:02:42;;;;;;;;;;;18.20;62.60;;;;;;7316555;19;10802;-56
2024/01/08 04:05:33;;;;;;;;;;;18.20;62.60;;;;;;7311044;19;9703;-55
2024/01/08 04:08:02;;;;;;;;;;;18.20;62.20;;;;;;7316016;19;9513;-55
2024/01/08 04:10:31;;;;;;;;;;;18.20;62.20;;;;;;7314906;19;9586;-55
2024/01/08 04:13:00;;;;;;;;;;;18.20;62.10;;;;;;7315259;19;10700;-55
2024/01/08 04:15:29;;;;;;;;;;;18.20;62.20;;;;;;7317781;19;9378;-55
2024/01/08 04:17:59;;;;;;;;;;;18.20;62.30;;;;;;7316036;19;10964;-55
2024/01/08 04:20:28;;;;;;;;;;;18.20;62.50;;;;;;7313695;19;9294;-55
2024/01/08 04:22:59;;;;;;;;;;;18.20;62.50;;;;;;7315377;19;9481;-55
2024/01/08 04:25:28;;;;;;;;;;;18.30;62.40;;;;;;7313582;19;9428;-55
2024/01/08 04:27:57;;;;;;;;;;;18.30;62.30;;;;;;7316722;19;9477;-55
2024/01/08 04:30:26;;;;;;;;;;;18.40;62.40;;;;;;7314251;19;10676;-55
2024/01/08 04:32:55;;;;;;;;;;;18.40;62.40;;;;;;7314087;19;9522;-55
2024/01/08 04:35:21;;;;;;;;;;;18.60;62.30;;;;;;7312423;19;9739;-55
2024/01/08 04:37:50;;;;;;;;;;;18.60;62.30;;;;;;7313139;19;9664;-55
2024/01/08 04:40:42;;;;;;;;;;;18.70;62.10;;;;;;7313630;19;9564;-55
2024/01/08 04:43:31;;;;;;;;;;;18.80;62.00;;;;;;7311833;19;9624;-55
2024/01/08 04:46:00;;;;;;;;;;;18.90;61.90;;;;;;7309883;19;9637;-55
2024/01/08 04:48:29;;;;;;;;;;;19.00;61.80;;;;;;7314451;19;9227;-55
2024/01/08 04:50:58;;;;;;;;;;;19.00;61.80;;;;;;7316203;19;9234;-55
2024/01/08 04:53:27;;;;;;;;;;;19.10;61.70;;;;;;7314066;19;10689;-55
2024/01/08 04:55:58;;;;;;;;;;;19.10;61.70;;;;;;7316777;19;9469;-55
2024/01/08 04:58:27;;;;;;;;;;;19.00;61.60;;;;;;7321108;19;9627;-55
2024/01/08 05:00:56;;;;;;;;;;;19.00;61.70;;;;;;7322155;19;10379;-55
2024/01/08 05:03:25;;;;;;;;;;;19.00;61.80;;;;;;7319277;19;9469;-55
2024/01/08 05:06:15;;;;;;;;;;;19.00;61.80;;;;;;7319499;19;9455;-55
2024/01/08 05:08:44;;;;;;;;;;;18.90;61.70;;;;;;7321833;19;9259;-55
2024/01/08 05:11:16;;;;;;;;;;;18.90;61.70;;;;;;7321754;19;9622;-55
2024/01/08 05:13:45;;;;;;;;;;;18.90;61.70;;;;;;7321960;19;9279;-55
2024/01/08 05:16:14;;;;;;;;;;;18.80;61.70;;;;;;7321144;19;9531;-55
2024/01/08 05:18:43;;;;;;;;;;;18.80;61.50;;;;;;7322188;19;9646;-55
2024/01/08 05:21:16;;;;;;;;;;;18.70;61.40;;;;;;7321190;19;9469;-55
2024/01/08 05:23:46;;;;;;;;;;;18.70;61.40;;;;;;7321757;19;9438;-55
2024/01/08 05:26:17;;;;;;;;;;;18.60;61.50;;;;;;7321317;19;9270;-55
2024/01/08 05:28:46;;;;;;;;;;;18.60;61.60;;;;;;7323057;19;10648;-55
2024/01/08 05:31:15;;;;;;;;;;;18.50;61.60;;;;;;7321883;19;10953;-55
2024/01/08 05:33:44;;;;;;;;;;;18.50;61.70;;;;;;7321508;19;9486;-55
2024/01/08 05:36:13;;;;;;;;;;;18.40;61.70;;;;;;7319387;19;9477;-55
2024/01/08 05:38:42;;;;;;;;;;;18.30;61.80;;;;;;7320397;19;9482;-55
2024/01/08 05:41:11;;;;;;;;;;;18.30;61.80;;;;;;7320731;19;9475;-55
2024/01/08 05:43:42;;;;;;;;;;;18.30;61.90;;;;;;7320352;19;9266;-56
2024/01/08 05:46:11;;;;;;;;;;;18.20;61.90;;;;;;7316761;19;9730;-55
2024/01/08 05:48:40;;;;;;;;;;;18.20;61.90;;;;;;7318663;19;10721;-55
2024/01/08 05:51:30;;;;;;;;;;;18.20;61.90;;;;;;7320089;19;9332;-55
2024/01/08 05:53:59;;;;;;;;;;;18.20;61.90;;;;;;7320758;19;9409;-55
2024/01/08 05:56:28;;;;;;;;;;;18.20;61.90;;;;;;7311266;19;11536;-55
2024/01/08 05:58:59;;;;;;;;;;;18.20;62.00;;;;;;7320003;19;9582;-55
2024/01/08 06:01:28;;;;;;;;;;;18.10;61.90;;;;;;7317704;19;9252;-55
2024/01/08 06:03:57;;;;;;;;;;;18.20;61.90;;;;;;7320656;19;9614;-55
2024/01/08 06:06:26;;;;;;;;;;;18.20;62.00;;;;;;7319536;19;9597;-55
2024/01/08 06:08:56;;;;;;;;;;;18.20;62.60;;;;;;7320866;19;9473;-56
2024/01/08 06:11:45;;;;;;;;;;;18.10;62.00;;;;;;7317412;19;9234;-55
2024/01/08 06:14:16;;;;;;;;;;;18.20;62.30;;;;;;7318844;19;9457;-55
2024/01/08 06:16:45;;;;;;;;;;;18.30;62.30;;;;;;7319364;19;9324;-55
2024/01/08 06:19:15;;;;;;;;;;;18.30;62.10;;;;;;7317318;19;11164;-55
2024/01/08 06:21:43;;;;;;;;;;;18.30;62.10;;;;;;7320744;19;10858;-55
2024/01/08 06:24:12;;;;;;;;;;;18.40;62.00;;;;;;7319838;19;10058;-56
2024/01/08 06:26:41;;;;;;;;;;;18.40;62.10;;;;;;7318115;19;9114;-57
2024/01/08 06:29:11;;;;;;;;;;;18.50;62.00;;;;;;7318257;19;9338;-56
2024/01/08 06:31:42;;;;;;;;;;;18.60;62.00;;;;;;7317182;19;9362;-57
2024/01/08 06:34:11;;;;;;;;;;;18.70;61.90;;;;;;7314955;19;10560;-56
2024/01/08 06:36:40;;;;;;;;;;;18.80;61.80;;;;;;7317439;19;9279;-55
2024/01/08 06:39:09;;;;;;;;;;;18.90;61.70;;;;;;7318364;19;9217;-66
2024/01/08 06:41:38;;;;;;;;;;;19.00;61.60;;;;;;7317106;19;9249;-66
2024/01/08 06:44:08;;;;;;;;;;;19.00;61.60;;;;;;7318521;19;9466;-66
2024/01/08 06:46:37;;;;;;;;;;;19.10;61.60;;;;;;7315473;19;9327;-66
2024/01/08 06:49:08;;;;;;;;;;;19.10;61.50;;;;;;7316119;19;9359;-66
2024/01/08 06:51:41;;;;;;;;;;;19.10;61.50;;;;;;7319008;19;9465;-66
2024/01/08 06:54:10;;;;;;;;;;;19.00;61.40;;;;;;7302342;19;9447;-65
2024/01/08 06:56:41;;;;;;;;;;;19.10;61.30;;;;;;7293255;19;9617;-68
2024/01/08 06:59:10;;;;;;;;;;;19.00;61.60;;;;;;7283177;19;9474;-66
2024/01/08 07:01:38;;;;;;;;;;;18.90;61.60;;;;;;7312869;19;9477;-66
2024/01/08 07:04:10;;;;;;;;;;;18.90;61.70;;;;;;7315730;19;9435;-66
2024/01/08 07:06:39;;;;;;;;;;;18.90;61.70;;;;;;7317792;19;10929;-66
2024/01/08 07:09:08;;;;;;;;;;;18.90;61.90;;;;;;7319648;19;9429;-66
2024/01/08 07:11:37;;;;;;;;;;;18.80;61.90;;;;;;7317656;19;9465;-66
2024/01/08 07:14:06;;;;;;;;;;;18.80;62.40;;;;;;7315746;19;9482;-66
2024/01/08 07:16:35;;;;;;;;;;;18.80;62.00;;;;;;7317158;19;9236;-66
2024/01/08 07:19:03;;;;;;;;;;;18.70;62.00;;;;;;7309675;19;9604;-67
2024/01/08 07:21:36;;;;;;;;;;;18.70;62.00;;;;;;7314626;19;9104;-67
2024/01/08 07:24:06;;;;;;;;;;;18.60;62.10;;;;;;7315660;19;9303;-66
2024/01/08 07:26:35;;;;;;;;;;;18.60;62.20;;;;;;7311919;19;9278;-66
2024/01/08 07:29:04;;;;;;;;;;;18.50;62.30;;;;;;7313435;19;9261;-66
2024/01/08 07:31:33;;;;;;;;;;;18.50;62.30;;;;;;7314486;19;10796;-67
2024/01/08 07:34:02;;;;;;;;;;;18.40;62.30;;;;;;7318058;19;10139;-66
2024/01/08 07:36:31;;;;;;;;;;;18.30;62.40;;;;;;7311367;19;9580;-66
2024/01/08 07:39:02;;;;;;;;;;;18.30;62.40;;;;;;7318247;19;9606;-66
2024/01/08 07:41:31;;;;;;;;;;;18.30;62.40;;;;;;7315288;19;9225;-67
2024/01/08 07:44:00;;;;;;;;;;;18.30;62.50;;;;;;7318183;19;9542;-67
2024/01/08 07:46:29;;;;;;;;;;;18.30;62.50;;;;;;7313539;19;9516;-66
2024/01/08 07:48:58;;;;;;;;;;;18.30;62.60;;;;;;7317654;19;9188;-67
2024/01/08 07:51:27;;;;;;;;;;;18.30;62.50;;;;;;7316513;19;9458;-66
2024/01/08 07:53:56;;;;;;;;;;;18.30;62.40;;;;;;7315418;19;9444;-66
2024/01/08 07:56:48;;;;;;;;;;;18.30;62.40;;;;;;7308483;19;9387;-67
2024/01/08 07:59:17;;;;;;;;;;;18.20;62.40;;;;;;7314918;19;10989;-66
2024/01/08 08:01:46;;;;;;;;;;;18.20;62.40;;;;;;7310904;19;9656;-66
2024/01/08 08:04:15;;;;;;;;;;;18.30;62.40;;;;;;7315155;19;10763;-66
2024/01/08 08:06:44;;;;;;;;;;;18.30;62.60;;;;;;7315328;19;10255;-67
2024/01/08 08:09:13;;;;;;;;;;;18.30;62.60;;;;;;7310652;19;9222;-66
2024/01/08 08:11:42;;;;;;;;;;;18.30;62.50;;;;;;7312588;19;9479;-66
2024/01/08 08:14:13;;;;;;;;;;;18.40;62.50;;;;;;7312777;19;9453;-66
2024/01/08 08:16:42;;;;;;;;;;;18.40;62.60;;;;;;7311136;19;10726;-66
2024/01/08 08:19:11;;;;;;;;;;;18.50;62.50;;;;;;7313890;19;9281;-67
2024/01/08 08:21:41;;;;;;;;;;;18.60;62.50;;;;;;7311211;19;10669;-66
2024/01/08 08:24:10;;;;;;;;;;;18.60;62.30;;;;;;7314297;19;10739;-66
2024/01/08 08:26:39;;;;;;;;;;;18.80;62.20;;;;;;7312341;19;9507;-66
2024/01/08 08:29:07;;;;;;;;;;;18.80;62.10;;;;;;7312007;19;9148;-66
2024/01/08 08:31:39;;;;;;;;;;;18.90;62.10;;;;;;7316451;19;9356;-66
2024/01/08 08:34:09;;;;;;;;;;;19.00;61.90;;;;;;7318626;19;9246;-67
2024/01/08 08:36:41;;;;;;;;;;;19.10;61.90;;;;;;7322044;19;9588;-66
2024/01/08 08:39:11;;;;;;;;;;;19.10;61.70;;;;;;7321993;19;9349;-66
2024/01/08 08:41:40;;;;;;;;;;;19.10;61.70;;;;;;7318613;19;9645;-66
2024/01/08 08:44:12;;;;;;;;;;;19.10;61.70;;;;;;7320084;19;9634;-66
2024/01/08 08:46:44;;;;;;;;;;;19.10;61.70;;;;;;7322658;19;9395;-66
2024/01/08 08:49:32;;;;;;;;;;;19.10;61.70;;;;;;7319875;19;9507;-66
2024/01/08 08:52:02;;;;;;;;;;;19.10;61.70;;;;;;7323127;19;9664;-66
2024/01/08 08:54:31;;;;;;;;;;;19.10;61.80;;;;;;7322491;19;9226;-66
2024/01/08 08:57:00;;;;;;;;;;;19.10;61.80;;;;;;7319921;19;9179;-66
2024/01/08 08:59:49;;;;;;;;;;;19.00;61.80;;;;;;7318356;19;9411;-66
2024/01/08 09:02:21;;;;;;;;;;;19.00;61.80;;;;;;7320416;19;9448;-66
2024/01/08 09:04:49;;;;;;;;;;;18.90;61.70;;;;;;7320608;19;9469;-66
2024/01/08 09:07:22;;;;;;;;;;;18.90;61.60;;;;;;7321462;19;9270;-66
2024/01/08 09:09:52;;;;;;;;;;;18.90;61.60;;;;;;7321109;19;9199;-66
2024/01/08 09:12:21;;;;;;;;;;;18.80;61.60;;;;;;7316889;19;9273;-66
2024/01/08 09:14:50;;;;;;;;;;;18.80;61.70;;;;;;7319339;19;9194;-66
2024/01/08 09:17:21;;;;;;;;;;;18.80;61.80;;;;;;7320699;19;9467;-66
2024/01/08 09:19:52;;;;;;;;;;;18.70;61.80;;;;;;7319456;19;10589;-66
2024/01/08 09:22:21;;;;;;;;;;;18.60;61.80;;;;;;7318195;19;9292;-65
2024/01/08 09:24:50;;;;;;;;;;;18.60;61.90;;;;;;7319415;19;9357;-66
2024/01/08 09:27:19;;;;;;;;;;;18.50;62.00;;;;;;7322193;19;9513;-66
2024/01/08 09:29:48;;;;;;;;;;;18.50;62.10;;;;;;7319641;19;9509;-66
2024/01/08 09:32:17;;;;;;;;;;;18.40;62.10;;;;;;7320199;19;9258;-67
2024/01/08 09:34:49;;;;;;;;;;;18.40;62.20;;;;;;7319032;19;9405;-66
2024/01/08 09:37:20;;;;;;;;;;;18.30;62.20;;;;;;7321396;19;9285;-66
2024/01/08 09:39:49;;;;;;;;;;;18.30;62.20;;;;;;7318095;19;9487;-66
2024/01/08 09:42:18;;;;;;;;;;;18.30;62.30;;;;;;7315187;19;9340;-67
2024/01/08 09:44:49;;;;;;;;;;;18.30;62.30;;;;;;7313927;19;9475;-67
2024/01/08 09:47:19;;;;;;;;;;;18.30;62.30;;;;;;7319089;19;9220;-67
2024/01/08 09:49:51;;;;;;;;;;;18.30;62.20;;;;;;7316175;19;9483;-67
2024/01/08 09:52:20;;;;;;;;;;;18.30;62.00;;;;;;7317538;19;9262;-67
2024/01/08 10:51:51;;;;;;;;;;;17.40;60.00;;;;;;7350122;19;9468;-60
2024/01/08 10:54:22;;;;;;;;;;;17.30;61.20;;;;;;7352803;19;9169;-61
2024/01/08 10:56:57;;;;;;;;;;;17.20;61.10;;;;;;7349139;19;9241;-63
2024/01/08 10:59:29;;;;;;;;;;;17.20;61.00;;;;;;7350003;19;9262;-61
2024/01/08 11:01:58;;;;;;;;;;;17.20;61.00;;;;;;7345571;19;9164;-64
2024/01/08 11:04:27;;;;;;;;;;;17.20;61.00;;;;;;7352515;19;9285;-63
2024/01/08 11:07:02;;;;;;;;;;;17.20;61.00;;;;;;7351303;19;9375;-61
2024/01/08 11:09:33;;;;;;;;;;;17.20;61.10;;;;;;7349878;19;9485;-63
2024/01/08 11:12:05;;;;;;;;;;;17.30;61.20;;;;;;7344840;19;10620;-63
2024/01/08 11:14:35;;;;;;;;;;;17.30;61.10;;;;;;7345178;19;9457;-63
2024/01/08 11:17:04;;;;;;;;;;;17.40;61.20;;;;;;7350370;19;10494;-63
2024/01/08 11:19:33;;;;;;;;;;;17.50;61.90;;;;;;7342613;19;10356;-63
2024/01/08 11:22:15;;;;;;;;;;;17.60;61.60;;;;;;7352980;19;9398;-63
2024/01/08 11:24:44;;;;;;;;;;;17.70;61.30;;;;;;7354344;19;9216;-61
2024/01/08 11:27:13;;;;;;;;;;;17.80;61.40;;;;;;7349868;19;9131;-61
2024/01/08 11:29:42;;;;;;;;;;;17.80;61.20;;;;;;7350617;19;9297;-63
2024/01/08 11:32:44;;;;;;;;;;;17.90;61.10;;;;;;7348450;19;9652;-63
2024/01/08 11:35:13;;;;;;;;;;;18.00;61.30;;;;;;7346563;19;9867;-63
2024/01/08 11:37:45;;;;;;;;;;;18.10;61.30;;;;;;7341543;19;9550;-61
2024/01/08 11:40:18;;;;;;;;;;;18.10;61.30;;;;;;7349183;19;9175;-60
2024/01/08 11:48:24;;;;;;;;;;;18.30;61.20;;;;;;7298089;19;9959;-67
2024/01/08 11:50:54;;;;;;;;;;;18.40;61.20;;;;;;7334769;19;9349;-69
2024/01/08 11:53:26;;;;;;;;;;;18.50;61.20;;;;;;7318098;19;9325;-70
2024/01/08 11:55:56;;;;;;;;;;;18.60;61.20;;;;;;7319486;19;9582;-69
2024/01/08 11:58:25;;;;;;;;;;;18.60;61.20;;;;;;7322266;19;10265;-67
2024/01/08 12:00:54;;;;;;;;;;;18.60;61.10;;;;;;7318846;19;9533;-68
2024/01/08 12:03:24;;;;;;;;;;;18.70;61.10;;;;;;7323131;19;9581;-68
2024/01/08 12:06:14;;;;;;;;;;;18.80;61.20;;;;;;7317476;19;9609;-69
2024/01/08 12:08:46;;;;;;;;;;;18.80;61.20;;;;;;7322882;19;9208;-65
2024/01/08 12:11:15;;;;;;;;;;;18.90;61.20;;;;;;7320109;19;9665;-67
2024/01/08 12:13:44;;;;;;;;;;;18.90;61.00;;;;;;7319466;19;9466;-69
2024/01/08 12:16:12;;;;;;;;;;;18.90;61.00;;;;;;7317035;19;9240;-73
2024/01/08 12:18:43;;;;;;;;;;;19.00;61.10;;;;;;7321353;19;9538;-70
2024/01/08 12:21:13;;;;;;;;;;;19.00;61.00;;;;;;7321822;19;9631;-72
2024/01/08 12:23:42;;;;;;;;;;;19.00;61.10;;;;;;7313313;19;9528;-68
2024/01/08 12:26:14;;;;;;;;;;;19.10;61.10;;;;;;7319756;19;9458;-69
2024/01/08 12:29:03;;;;;;;;;;;19.10;61.00;;;;;;7307616;19;9257;-66
2024/01/08 12:31:35;;;;;;;;;;;19.10;61.00;;;;;;7317150;19;9471;-66
2024/01/08 12:34:04;;;;;;;;;;;19.10;61.10;;;;;;7319208;19;9521;-65
2024/01/08 12:36:33;;;;;;;;;;;19.10;61.10;;;;;;7318672;19;9362;-66
2024/01/08 12:39:22;;;;;;;;;;;19.10;61.70;;;;;;7317220;19;10657;-65
2024/01/08 12:41:58;;;;;;;;;;;19.10;61.10;;;;;;7319182;19;9260;-66
2024/01/08 12:44:49;;;;;;;;;;;19.10;61.20;;;;;;7318756;19;9649;-66
2024/01/08 12:47:18;;;;;;;;;;;19.10;61.30;;;;;;7319940;19;10703;-65
2024/01/08 12:49:47;;;;;;;;;;;19.10;61.20;;;;;;7319435;19;9490;-66
2024/01/08 12:52:16;;;;;;;;;;;19.10;61.30;;;;;;7317803;19;9314;-66
2024/01/08 12:54:45;;;;;;;;;;;19.10;61.30;;;;;;7320047;19;9474;-66
2024/01/08 12:57:17;;;;;;;;;;;19.20;61.40;;;;;;7319015;19;9381;-66
2024/01/08 12:59:54;;;;;;;;;;;19.20;61.90;;;;;;7318538;19;9477;-66
2024/01/08 13:02:25;;;;;;;;;;;19.20;61.20;;;;;;7317549;19;9335;-66
2024/01/08 13:04:54;;;;;;;;;;;19.20;61.20;;;;;;7320011;19;9530;-66
2024/01/08 13:07:24;;;;;;;;;;;19.20;61.20;;;;;;7319339;19;9252;-66
2024/01/08 13:09:53;;;;;;;;;;;19.20;61.20;;;;;;7318805;19;9321;-66
2024/01/08 13:12:24;;;;;;;;;;;19.20;61.30;;;;;;7318539;19;9682;-66
2024/01/08 13:14:53;;;;;;;;;;;19.20;61.20;;;;;;7320755;19;9513;-66
2024/01/08 13:17:22;;;;;;;;;;;19.10;61.20;;;;;;7320084;19;9446;-65
2024/01/08 13:19:51;;;;;;;;;;;19.10;61.30;;;;;;7317721;19;9527;-66
2024/01/08 13:22:20;;;;;;;;;;;19.10;61.30;;;;;;7319413;19;9516;-66
2024/01/08 13:24:49;;;;;;;;;;;19.00;61.30;;;;;;7316371;19;9179;-66
2024/01/08 13:27:18;;;;;;;;;;;19.00;61.30;;;;;;7317103;19;9589;-68
2024/01/08 13:29:50;;;;;;;;;;;18.90;61.30;;;;;;7317321;19;10426;-65
2024/01/08 13:32:19;;;;;;;;;;;18.90;61.40;;;;;;7320408;19;9751;-66
2024/01/08 13:34:48;;;;;;;;;;;18.80;61.50;;;;;;7316059;19;9672;-66
2024/01/08 13:37:17;;;;;;;;;;;18.80;61.60;;;;;;7318492;19;9614;-66
2024/01/08 13:39:47;;;;;;;;;;;18.80;61.70;;;;;;7314141;19;9408;-66
2024/01/08 13:42:17;;;;;;;;;;;18.70;61.70;;;;;;7317930;19;10229;-66
2024/01/08 13:44:48;;;;;;;;;;;18.70;61.70;;;;;;7317365;19;9228;-66
2024/01/08 13:47:17;;;;;;;;;;;18.60;61.80;;;;;;7316339;19;9266;-65
2024/01/08 13:50:07;;;;;;;;;;;18.60;61.80;;;;;;7315217;19;9601;-66
2024/01/08 13:52:36;;;;;;;;;;;18.60;61.80;;;;;;7314756;19;9466;-65
2024/01/08 13:55:05;;;;;;;;;;;18.60;61.80;;;;;;7316875;19;9466;-66
2024/01/08 13:57:35;;;;;;;;;;;18.60;61.90;;;;;;7316330;19;10972;-69
2024/01/08 14:00:08;;;;;;;;;;;18.60;61.90;;;;;;7319424;19;9318;-70
2024/01/08 14:02:38;;;;;;;;;;;18.60;62.00;;;;;;7317562;19;9476;-70
2024/01/08 14:05:08;;;;;;;;;;;18.60;62.00;;;;;;7317831;19;9304;-68
2024/01/08 14:07:37;;;;;;;;;;;18.70;62.00;;;;;;7314959;19;9236;-71
2024/01/08 14:10:07;;;;;;;;;;;18.70;61.90;;;;;;7309680;19;9710;-68
2024/01/08 14:12:36;;;;;;;;;;;18.70;61.90;;;;;;7316005;19;9855;-68
2024/01/08 14:15:08;;;;;;;;;;;18.80;61.90;;;;;;7317177;19;9457;-68
2024/01/08 14:17:41;;;;;;;;;;;18.80;61.90;;;;;;7318527;19;10592;-68
2024/01/08 14:20:11;;;;;;;;;;;18.80;61.90;;;;;;7317202;19;9276;-68
2024/01/08 14:22:41;;;;;;;;;;;18.90;62.00;;;;;;7315935;19;9658;-68
2024/01/08 14:25:10;;;;;;;;;;;18.90;61.80;;;;;;7316960;19;9310;-69
2024/01/08 14:27:39;;;;;;;;;;;18.90;62.00;;;;;;7317483;19;9463;-69
2024/01/08 14:30:12;;;;;;;;;;;19.00;61.80;;;;;;7318381;19;10371;-68
2024/01/08 14:32:41;;;;;;;;;;;19.10;61.90;;;;;;7316835;19;9607;-69
2024/01/08 14:35:11;;;;;;;;;;;19.10;61.90;;;;;;7318334;19;9393;-69
2024/01/08 14:37:41;;;;;;;;;;;19.20;61.90;;;;;;7317520;19;9289;-69
2024/01/08 14:40:14;;;;;;;;;;;19.30;61.90;;;;;;7316359;19;9310;-68
2024/01/08 14:42:43;;;;;;;;;;;19.30;61.80;;;;;;7314010;19;9472;-68
2024/01/08 14:45:34;;;;;;;;;;;19.40;61.80;;;;;;7310494;19;9523;-68
2024/01/08 14:48:03;;;;;;;;;;;19.40;61.80;;;;;;7310072;19;9603;-68
2024/01/08 14:50:32;;;;;;;;;;;19.50;61.70;;;;;;7232058;19;9201;-68
2024/01/08 14:53:02;;;;;;;;;;;19.50;61.50;;;;;;7294242;19;10613;-68
2024/01/08 14:55:31;;;;;;;;;;;19.60;61.50;;;;;;7306599;19;9307;-68
2024/01/08 14:58:00;;;;;;;;;;;19.60;61.40;;;;;;7305291;19;9646;-70
2024/01/08 15:00:33;;;;;;;;;;;19.60;61.40;;;;;;7309465;19;9601;-67
2024/01/08 15:03:03;;;;;;;;;;;19.60;61.30;;;;;;7309488;19;10868;-71
2024/01/08 15:05:32;;;;;;;;;;;19.60;61.20;;;;;;7307936;19;9499;-68
2024/01/08 15:09:40;;;;;;;;;;;19.60;60.50;;;;;;7284039;18;36379;-69
2024/01/08 15:12:10;;;;;;;;;;;19.60;61.00;;;;;;7339557;19;9380;-68
2024/01/08 15:14:39;;;;;;;;;;;19.50;61.00;;;;;;7351293;19;9225;-66
2024/01/08 15:17:08;;;;;;;;;;;19.50;60.80;;;;;;7352530;19;9165;-66
2024/01/08 15:19:38;;;;;;;;;;;19.50;60.90;;;;;;7353931;19;9156;-66
2024/01/08 15:22:07;;;;;;;;;;;19.40;60.90;;;;;;7350678;19;9223;-66
2024/01/08 15:24:36;;;;;;;;;;;19.30;60.90;;;;;;7346650;19;9149;-67
2024/01/08 15:27:08;;;;;;;;;;;19.30;61.00;;;;;;7350775;19;9364;-72
2024/01/08 15:29:39;;;;;;;;;;;19.20;61.10;;;;;;7350049;19;9613;-69
2024/01/08 15:32:09;;;;;;;;;;;19.10;61.30;;;;;;7349103;19;10390;-66
2024/01/08 15:34:38;;;;;;;;;;;19.00;61.40;;;;;;7351318;19;9317;-67
2024/01/08 15:37:07;;;;;;;;;;;19.00;61.50;;;;;;7351553;19;9423;-67
2024/01/08 15:39:36;;;;;;;;;;;18.90;61.50;;;;;;7349906;19;9341;-67
2024/01/08 15:42:27;;;;;;;;;;;18.90;61.60;;;;;;7349407;19;9248;-66
2024/01/08 15:44:56;;;;;;;;;;;18.80;61.70;;;;;;7349750;19;10446;-67
2024/01/08 15:47:25;;;;;;;;;;;18.70;61.80;;;;;;7350530;19;9192;-66
2024/01/08 15:49:54;;;;;;;;;;;18.60;61.90;;;;;;7350397;19;10451;-66
2024/01/08 15:52:23;;;;;;;;;;;18.60;62.00;;;;;;7351623;19;9272;-66